Time;durP1;ratioP1;P1;durP2;ratioP2;P2;SDS_P1;SDS_P2;PMS_P1;PMS_P2;Temp;Humidity;BMP_temperature;BMP_pressure;BME280_temperature;BME280_humidity;BME280_pressure;Samples;Min_cycle;Max_cycle;Signal;HPM_P1;HPM_P2
2023/02/23 00:00:27;;;;;;;18.95;10.38;;;;;;;5.66;100.00;95467.53;1023659;28;20848;-61
2023/02/23 00:00:57;;;;;;;15.70;9.82;;;;;;;5.69;100.00;95467.06;1022259;29;20255;-61
2023/02/23 00:01:29;;;;;;;18.27;10.30;;;;;;;5.65;100.00;95461.53;1030123;28;20755;-62
2023/02/23 00:02:06;;;;;;;19.83;10.77;;;;;;;5.70;100.00;95467.84;1026446;28;20023;-60
2023/02/23 00:02:36;;;;;;;19.25;11.02;;;;;;;5.66;100.00;95468.31;1025731;28;20316;-61
2023/02/23 00:03:08;;;;;;;22.23;10.20;;;;;;;5.67;100.00;95463.91;1026316;28;20317;-61
2023/02/23 00:03:39;;;;;;;20.63;11.05;;;;;;;5.66;100.00;95462.31;1028676;28;20893;-61
2023/02/23 00:04:09;;;;;;;19.67;11.38;;;;;;;5.62;100.00;95466.44;1031764;28;20054;-60
2023/02/23 00:04:40;;;;;;;21.13;11.60;;;;;;;5.59;100.00;95461.69;1030398;28;20277;-61
2023/02/23 00:05:12;;;;;;;20.42;11.00;;;;;;;5.56;100.00;95464.78;1022494;28;20051;-61
2023/02/23 00:05:43;;;;;;;18.88;10.45;;;;;;;5.53;100.00;95460.03;1022871;28;20346;-62
2023/02/23 00:06:13;;;;;;;23.98;11.73;;;;;;;5.50;100.00;95463.94;1026615;28;20035;-60
2023/02/23 00:06:44;;;;;;;18.98;10.60;;;;;;;5.49;100.00;95458.94;1026668;28;20041;-60
2023/02/23 00:07:18;;;;;;;19.33;11.10;;;;;;;5.47;100.00;95458.41;1030455;28;20544;-60
2023/02/23 00:07:48;;;;;;;18.23;10.48;;;;;;;5.46;100.00;95457.59;1022388;28;20122;-61
2023/02/23 00:08:19;;;;;;;19.52;11.27;;;;;;;5.43;100.00;95464.09;1022938;28;20266;-61
2023/02/23 00:08:51;;;;;;;21.73;11.07;;;;;;;5.41;100.00;95458.31;1026719;28;20074;-59
2023/02/23 00:09:22;;;;;;;19.77;10.43;;;;;;;5.39;100.00;95457.75;1027156;28;20027;-61
2023/02/23 00:09:52;;;;;;;19.27;10.85;;;;;;;5.39;100.00;95460.34;1030112;28;20257;-61
2023/02/23 00:10:29;;;;;;;20.88;11.73;;;;;;;5.38;100.00;95461.38;1026364;28;20386;-61
2023/02/23 00:10:59;;;;;;;19.52;10.80;;;;;;;5.37;100.00;95459.03;1023378;28;20035;-61
2023/02/23 00:11:32;;;;;;;21.05;10.75;;;;;;;5.38;100.00;95455.41;1027241;28;20266;-59
2023/02/23 00:12:06;;;;;;;19.88;10.32;;;;;;;5.38;100.00;95461.38;1027826;28;20106;-61
2023/02/23 00:12:37;;;;;;;18.98;10.70;;;;;;;5.39;100.00;95462.94;1027245;28;20302;-61
2023/02/23 00:13:09;;;;;;;16.88;10.50;;;;;;;5.39;100.00;95467.38;1026328;28;20771;-61
2023/02/23 00:13:41;;;;;;;20.80;10.60;;;;;;;5.35;100.00;95461.84;1027660;28;20029;-61
2023/02/23 00:14:11;;;;;;;18.58;10.63;;;;;;;5.38;100.00;95466.59;1023064;28;20844;-61
2023/02/23 00:14:42;;;;;;;23.23;10.82;;;;;;;5.41;100.00;95466.13;1026925;28;20265;-61
2023/02/23 00:15:14;;;;;;;18.30;10.70;;;;;;;5.41;100.00;95466.13;1026045;28;20031;-61
2023/02/23 00:15:44;;;;;;;19.10;11.32;;;;;;;5.39;100.00;95472.56;1022683;28;20267;-61
2023/02/23 00:16:16;;;;;;;19.95;10.63;;;;;;;5.38;100.00;95465.81;1026390;28;20791;-60
2023/02/23 00:16:47;;;;;;;17.02;10.65;;;;;;;5.38;100.00;95471.00;1022871;28;20358;-61
2023/02/23 00:17:17;;;;;;;20.95;11.07;;;;;;;5.38;100.00;95477.00;1026945;28;20325;-61
2023/02/23 00:17:48;;;;;;;20.92;10.57;;;;;;;5.39;100.00;95468.16;1030482;28;20030;-61
2023/02/23 00:18:19;;;;;;;20.35;10.48;;;;;;;5.41;100.00;95466.13;1030385;28;20018;-61
2023/02/23 00:18:52;;;;;;;20.15;11.27;;;;;;;5.40;100.00;95463.78;1034312;28;20028;-60
2023/02/23 00:19:26;;;;;;;22.63;10.93;;;;;;;5.40;100.00;95469.75;1026197;28;20930;-61
2023/02/23 00:19:57;;;;;;;22.88;11.27;;;;;;;5.43;100.00;95471.06;1018179;29;20283;-61
2023/02/23 00:20:27;;;;;;;19.65;11.10;;;;;;;5.43;100.00;95466.69;1018544;29;20299;-61
2023/02/23 00:20:58;;;;;;;21.20;11.32;;;;;;;5.40;100.00;95461.94;1018407;29;20338;-60
2023/02/23 00:21:30;;;;;;;18.73;11.27;;;;;;;5.41;100.00;95466.13;1019544;28;20533;-61
2023/02/23 00:22:01;;;;;;;18.55;10.70;;;;;;;5.43;100.00;95465.88;1030389;28;20019;-61
2023/02/23 00:22:31;;;;;;;20.83;10.95;;;;;;;5.36;100.00;95458.22;1030518;28;20304;-60
2023/02/23 00:23:03;;;;;;;18.80;11.00;;;;;;;5.39;100.00;95462.94;1030551;28;20027;-61
2023/02/23 00:23:33;;;;;;;20.52;11.75;;;;;;;5.38;100.00;95463.97;1021942;28;20038;-61
2023/02/23 00:24:07;;;;;;;21.75;11.68;;;;;;;5.38;100.00;95471.78;1018414;29;20264;-60
2023/02/23 00:24:39;;;;;;;19.65;11.13;;;;;;;5.40;100.00;95469.75;1015344;29;20110;-61
2023/02/23 00:25:10;;;;;;;18.55;10.25;;;;;;;5.37;100.00;95467.63;1019187;28;20350;-61
2023/02/23 00:25:44;;;;;;;19.00;11.23;;;;;;;5.39;100.00;95460.34;1023210;28;20661;-59
2023/02/23 00:26:14;;;;;;;20.13;11.13;;;;;;;5.36;100.00;95458.22;1027633;28;20270;-61
2023/02/23 00:26:46;;;;;;;20.63;11.30;;;;;;;5.40;100.00;95474.16;1030450;28;20285;-62
2023/02/23 00:27:19;;;;;;;16.95;11.00;;;;;;;5.39;100.00;95473.34;1030082;28;20090;-61
2023/02/23 00:27:51;;;;;;;19.67;10.32;;;;;;;5.40;100.00;95474.97;1030280;28;20273;-61
2023/02/23 00:28:21;;;;;;;23.23;11.75;;;;;;;5.40;100.00;95474.16;1027239;28;20521;-61
2023/02/23 00:28:52;;;;;;;20.60;11.10;;;;;;;5.40;100.00;95468.97;1031194;28;20995;-61
2023/02/23 00:29:23;;;;;;;21.85;11.27;;;;;;;5.38;100.00;95474.41;1029952;28;20018;-61
2023/02/23 00:29:54;;;;;;;22.13;11.38;;;;;;;5.36;100.00;95471.22;1030586;28;20531;-61
2023/02/23 00:30:25;;;;;;;19.90;10.88;;;;;;;5.39;100.00;95467.38;1030264;28;20356;-61
2023/02/23 00:30:55;;;;;;;21.08;11.43;;;;;;;5.38;100.00;95474.41;1025134;28;20437;-61
2023/02/23 00:31:26;;;;;;;18.10;10.90;;;;;;;5.38;100.00;95477.00;1026485;28;20305;-61
2023/02/23 00:31:56;;;;;;;21.00;10.88;;;;;;;5.38;100.00;95463.97;1026293;28;20026;-61
2023/02/23 00:32:27;;;;;;;21.15;12.10;;;;;;;5.37;100.00;95475.44;1030541;28;20019;-61
2023/02/23 00:32:57;;;;;;;17.90;10.88;;;;;;;5.37;100.00;95475.44;1026574;28;20038;-61
2023/02/23 00:33:30;;;;;;;18.42;10.40;;;;;;;5.40;100.00;95468.97;1026532;28;20120;-61
2023/02/23 00:34:01;;;;;;;20.70;10.95;;;;;;;5.37;100.00;95459.81;1030439;28;20022;-61
2023/02/23 00:34:34;;;;;;;21.58;11.40;;;;;;;5.38;100.00;95471.00;1022995;28;20607;-61
2023/02/23 00:35:16;;;;;;;18.98;11.32;;;;;;;5.38;100.00;95471.00;1023174;28;20423;-62
2023/02/23 00:35:46;;;;;;;19.30;11.38;;;;;;;5.40;100.00;95474.97;1022239;28;20259;-62
2023/02/23 00:36:17;;;;;;;17.50;11.02;;;;;;;5.41;100.00;95476.53;1026148;28;20705;-61
2023/02/23 00:36:53;;;;;;;23.10;12.10;;;;;;;5.40;100.00;95482.75;1028205;28;20030;-60
2023/02/23 00:37:23;;;;;;;19.65;11.20;;;;;;;5.40;100.00;95472.34;1028541;28;20027;-61
2023/02/23 00:37:53;;;;;;;19.15;11.25;;;;;;;5.38;100.00;95479.59;1030653;28;20309;-60
2023/02/23 00:38:24;;;;;;;18.00;11.00;;;;;;;5.41;100.00;95471.31;1027000;28;20082;-62
2023/02/23 00:38:57;;;;;;;21.73;11.43;;;;;;;5.35;100.00;95461.84;1030709;28;20037;-61
2023/02/23 00:39:28;;;;;;;20.52;11.38;;;;;;;5.41;100.00;95471.31;1029848;28;20451;-61
2023/02/23 00:39:58;;;;;;;18.88;10.77;;;;;;;5.41;100.00;95471.31;1022756;28;20275;-62
2023/02/23 00:40:28;;;;;;;18.98;11.68;;;;;;;5.42;100.00;95469.50;1026186;28;20026;-62
2023/02/23 00:40:59;;;;;;;20.85;11.55;;;;;;;5.43;100.00;95477.09;1026760;28;20090;-62
2023/02/23 00:41:30;;;;;;;17.85;10.82;;;;;;;5.40;100.00;95464.56;1030588;28;20069;-61
2023/02/23 00:42:01;;;;;;;17.20;10.60;;;;;;;5.44;100.00;95476.06;1030821;28;20034;-62
2023/02/23 00:42:32;;;;;;;19.48;10.90;;;;;;;5.44;100.00;95478.66;1029415;28;20162;-61
2023/02/23 00:43:02;;;;;;;18.35;11.30;;;;;;;5.44;100.00;95475.28;1030447;28;20253;-61
2023/02/23 00:43:37;;;;;;;22.85;11.50;;;;;;;5.43;100.00;95471.06;1030964;28;20468;-61
2023/02/23 00:44:07;;;;;;;19.40;10.70;;;;;;;5.46;100.00;95473.22;1027201;28;20027;-61
2023/02/23 00:44:39;;;;;;;22.23;11.95;;;;;;;5.46;100.00;95475.03;1030377;28;20862;-61
2023/02/23 00:45:13;;;;;;;19.50;11.15;;;;;;;5.41;100.00;95465.34;1026621;28;20086;-61
2023/02/23 00:45:43;;;;;;;17.80;10.95;;;;;;;5.46;100.00;95480.22;1023973;28;20354;-61
2023/02/23 00:46:17;;;;;;;22.20;12.00;;;;;;;5.38;100.00;95466.59;1030625;28;20324;-62
2023/02/23 00:46:50;;;;;;;19.73;11.60;;;;;;;5.44;100.00;95480.47;1023416;28;20083;-61
2023/02/23 00:47:20;;;;;;;21.80;11.73;;;;;;;5.46;100.00;95478.41;1027621;28;20266;-60
2023/02/23 00:47:51;;;;;;;19.70;11.32;;;;;;;5.44;100.00;95480.47;1026391;28;20258;-62
2023/02/23 00:48:21;;;;;;;18.30;11.35;;;;;;;5.47;100.00;95480.00;1027160;28;20026;-62
2023/02/23 00:48:54;;;;;;;17.67;11.18;;;;;;;5.47;100.00;95480.00;1030491;28;20022;-61
2023/02/23 00:49:24;;;;;;;22.40;10.18;;;;;;;5.48;100.00;95478.19;1022192;28;20059;-62
2023/02/23 00:49:56;;;;;;;24.35;11.50;;;;;;;5.49;100.00;95477.16;1022211;29;20655;-61
2023/02/23 00:50:28;;;;;;;20.70;11.00;;;;;;;5.35;100.00;95456.66;1023184;28;20024;-60
2023/02/23 00:51:02;;;;;;;18.67;10.95;;;;;;;5.49;100.00;95474.56;1027664;28;20321;-61
2023/02/23 00:51:33;;;;;;;22.50;10.88;;;;;;;5.47;100.00;95485.22;1031265;28;20324;-61
2023/02/23 00:52:03;;;;;;;19.52;11.40;;;;;;;5.48;100.00;95475.59;1026351;28;20325;-62
2023/02/23 00:52:34;;;;;;;23.67;11.10;;;;;;;5.49;100.00;95477.16;1026472;28;20035;-60
2023/02/23 00:53:04;;;;;;;19.90;11.50;;;;;;;5.43;100.00;95471.06;1022448;28;20023;-61
2023/02/23 00:53:35;;;;;;;19.92;10.55;;;;;;;5.42;100.00;95465.09;1018642;29;20032;-61
2023/02/23 00:54:05;;;;;;;18.27;10.57;;;;;;;5.48;100.00;95478.19;1022553;29;20457;-61
2023/02/23 00:54:36;;;;;;;20.00;11.15;;;;;;;5.48;100.00;95483.41;1026396;28;20030;-61
2023/02/23 00:55:07;;;;;;;20.75;11.32;;;;;;;5.51;100.00;95475.13;1018539;29;20027;-61
2023/02/23 00:55:40;;;;;;;20.85;11.52;;;;;;;5.44;100.00;95463.03;1018652;29;20030;-61
2023/02/23 00:56:13;;;;;;;21.38;12.40;;;;;;;5.48;100.00;95483.41;1014659;29;20303;-61
2023/02/23 00:56:44;;;;;;;22.40;12.10;;;;;;;5.47;100.00;95474.81;1016969;28;20318;-61
2023/02/23 00:57:14;;;;;;;21.73;11.70;;;;;;;5.46;100.00;95472.41;1023318;28;20334;-60
2023/02/23 00:57:45;;;;;;;20.27;11.50;;;;;;;5.48;100.00;95471.16;1023528;28;20067;-62
2023/02/23 00:58:16;;;;;;;23.48;11.52;;;;;;;5.48;100.00;95475.59;1030342;28;20053;-61
2023/02/23 00:58:46;;;;;;;23.83;13.13;;;;;;;5.47;100.00;95481.81;1026796;28;20530;-61
2023/02/23 00:59:17;;;;;;;21.75;11.10;;;;;;;5.46;100.00;95477.63;1029845;28;20022;-60
2023/02/23 00:59:47;;;;;;;20.30;11.20;;;;;;;5.43;100.00;95478.88;1030137;28;20030;-61
2023/02/23 01:00:19;;;;;;;19.40;11.55;;;;;;;5.41;100.00;95481.72;1022472;28;20027;-61
2023/02/23 01:00:50;;;;;;;22.33;11.90;;;;;;;5.43;100.00;95478.88;1022466;29;20065;-61
2023/02/23 01:01:20;;;;;;;20.30;11.75;;;;;;;5.38;100.00;95474.41;1018649;28;20776;-59
2023/02/23 01:01:51;;;;;;;22.17;11.63;;;;;;;5.42;100.00;95478.09;1019097;28;20023;-60
2023/02/23 01:02:21;;;;;;;18.23;10.65;;;;;;;5.41;100.00;95476.53;1026521;28;20030;-62
2023/02/23 01:02:52;;;;;;;21.85;12.13;;;;;;;5.43;100.00;95479.69;1022665;28;20027;-61
2023/02/23 01:03:22;;;;;;;22.40;11.27;;;;;;;5.46;100.00;95477.63;1026419;28;20026;-60
2023/02/23 01:03:53;;;;;;;20.70;11.68;;;;;;;5.47;100.00;95484.44;1030494;28;20037;-60
2023/02/23 01:04:23;;;;;;;23.00;11.52;;;;;;;5.43;100.00;95484.91;1026338;28;20031;-61
2023/02/23 01:04:54;;;;;;;20.83;12.10;;;;;;;5.40;100.00;95480.16;1026269;28;20019;-61
2023/02/23 01:05:24;;;;;;;20.27;11.70;;;;;;;5.46;100.00;95485.44;1022470;28;20023;-60
2023/02/23 01:06:04;;;;;;;22.83;10.70;;;;;;;5.48;100.00;95480.78;1022449;28;20030;-61
2023/02/23 01:06:36;;;;;;;19.52;11.23;;;;;;;5.46;100.00;95485.44;1027339;28;20489;-61
2023/02/23 01:07:06;;;;;;;20.27;10.52;;;;;;;5.47;100.00;95484.44;1027798;28;20348;-61
2023/02/23 01:07:37;;;;;;;20.70;10.90;;;;;;;5.47;100.00;95481.81;1026326;28;20278;-61
2023/02/23 01:08:09;;;;;;;24.00;12.18;;;;;;;5.46;100.00;95488.03;1022650;29;20025;-61
2023/02/23 01:08:44;;;;;;;23.63;11.52;;;;;;;5.44;100.00;95486.47;1019445;28;20048;-61
2023/02/23 01:09:20;;;;;;;21.70;12.18;;;;;;;5.42;100.00;95485.91;1019461;29;20370;-59
2023/02/23 01:09:51;;;;;;;22.00;10.68;;;;;;;5.46;100.00;95486.22;1020580;28;20378;-61
2023/02/23 01:10:22;;;;;;;19.73;11.45;;;;;;;5.46;100.00;95488.81;1023281;29;20394;-61
2023/02/23 01:10:52;;;;;;;20.88;11.77;;;;;;;5.47;100.00;95489.63;1024423;28;20102;-62
2023/02/23 01:11:29;;;;;;;21.70;11.82;;;;;;;5.44;100.00;95470.06;1024828;28;20793;-60
2023/02/23 01:12:00;;;;;;;20.80;11.95;;;;;;;5.51;100.00;95481.09;1024370;28;20023;-62
2023/02/23 01:12:30;;;;;;;18.95;11.55;;;;;;;5.54;100.00;95485.06;1023272;29;20267;-62
2023/02/23 01:13:01;;;;;;;19.55;11.65;;;;;;;5.53;100.00;95480.84;1024125;28;20520;-62
2023/02/23 01:13:31;;;;;;;24.27;12.68;;;;;;;5.51;100.00;95480.31;1028580;28;20034;-61
2023/02/23 01:14:02;;;;;;;19.98;11.60;;;;;;;5.48;100.00;95475.59;1035317;28;20049;-61
2023/02/23 01:14:33;;;;;;;19.10;10.25;;;;;;;5.50;100.00;95473.53;1035209;28;20339;-61
2023/02/23 01:15:07;;;;;;;19.17;11.05;;;;;;;5.54;100.00;95479.84;1035232;28;20030;-61
2023/02/23 01:15:43;;;;;;;20.52;11.38;;;;;;;5.53;100.00;95475.66;1035099;28;20029;-61
2023/02/23 01:16:54;;;;;;;25.88;11.90;;;;;;;5.51;100.00;95475.13;1031929;28;20308;-66
2023/02/23 01:17:24;;;;;;;23.02;11.90;;;;;;;5.58;100.00;95481.72;1029763;28;20041;-68
2023/02/23 01:17:55;;;;;;;25.45;12.38;;;;;;;5.58;100.00;95475.75;1032256;28;20113;-68
2023/02/23 01:18:26;;;;;;;21.52;12.27;;;;;;;5.57;100.00;95474.97;1032280;28;20439;-67
2023/02/23 01:18:58;;;;;;;21.27;11.45;;;;;;;5.49;100.00;95462.31;1031176;28;20281;-67
2023/02/23 01:19:32;;;;;;;23.70;11.02;;;;;;;5.54;100.00;95469.44;1032111;28;20507;-68
2023/02/23 01:20:14;;;;;;;32.70;13.18;;;;;;;5.43;100.00;95451.06;1027004;28;20328;-69
2023/02/23 01:20:44;;;;;;;19.45;11.25;;;;;;;5.62;100.00;95476.84;1027093;28;20361;-67
2023/02/23 01:21:29;;;;;;;26.08;12.77;;;;;;;5.56;100.00;95467.38;1028887;28;20863;-64
2023/02/23 01:22:01;;;;;;;20.63;12.32;;;;;;;5.67;100.00;95474.31;1026625;28;20018;-68
2023/02/23 01:22:31;;;;;;;26.65;11.25;;;;;;;5.65;100.00;95477.16;1034555;28;20276;-69
2023/02/23 01:23:02;;;;;;;22.00;12.13;;;;;;;5.65;100.00;95478.97;1035218;28;20261;-68
2023/02/23 01:23:33;;;;;;;22.42;11.73;;;;;;;5.64;100.00;95472.19;1031237;28;20483;-67
2023/02/23 01:24:04;;;;;;;20.35;10.75;;;;;;;5.67;100.00;95474.31;1019435;29;20366;-68
2023/02/23 01:24:34;;;;;;;18.92;11.20;;;;;;;5.67;100.00;95469.13;1019172;29;20046;-66
2023/02/23 01:25:05;;;;;;;23.13;12.32;;;;;;;5.63;100.00;95478.41;1018389;29;20049;-68
2023/02/23 01:25:35;;;;;;;20.92;11.80;;;;;;;5.62;100.00;95477.63;1022791;28;20032;-68
2023/02/23 01:26:20;;;;;;;22.30;11.88;;;;;;;5.59;100.00;95472.09;1035057;28;20518;-68
2023/02/23 01:26:50;;;;;;;25.10;12.73;;;;;;;5.61;100.00;95480.47;1022947;28;20035;-66
2023/02/23 01:27:21;;;;;;;21.88;12.00;;;;;;;5.59;100.00;95475.50;1023025;29;20263;-68
2023/02/23 01:27:53;;;;;;;23.75;12.05;;;;;;;5.60;100.00;95476.28;1023130;29;20028;-67
2023/02/23 01:28:23;;;;;;;21.15;11.48;;;;;;;5.59;100.00;95474.72;1019807;28;20260;-69
2023/02/23 01:28:59;;;;;;;21.88;12.30;;;;;;;5.53;100.00;95465.25;1029887;28;20262;-68
2023/02/23 01:29:29;;;;;;;21.20;11.63;;;;;;;5.63;100.00;95478.41;1026271;28;20051;-67
2023/02/23 01:30:00;;;;;;;22.75;12.68;;;;;;;5.58;100.00;95470.53;1027831;28;20269;-67
2023/02/23 01:30:30;;;;;;;21.80;11.88;;;;;;;5.60;100.00;95484.91;1026531;28;20523;-68
2023/02/23 01:31:01;;;;;;;18.08;11.20;;;;;;;5.59;100.00;95483.31;1021553;28;20019;-68
2023/02/23 01:31:31;;;;;;;21.35;12.52;;;;;;;5.57;100.00;95485.38;1022941;28;20032;-68
2023/02/23 01:32:02;;;;;;;18.90;12.18;;;;;;;5.57;100.00;95480.16;1022949;28;20025;-69
2023/02/23 01:32:35;;;;;;;21.98;11.70;;;;;;;5.49;100.00;95467.53;1023089;28;20023;-68
2023/02/23 01:33:05;;;;;;;20.42;11.80;;;;;;;5.55;100.00;95481.41;1023465;28;20530;-68
2023/02/23 01:33:35;;;;;;;20.40;11.98;;;;;;;5.53;100.00;95478.25;1023079;29;20263;-70
2023/02/23 01:34:06;;;;;;;21.83;12.13;;;;;;;5.49;100.00;95471.94;1019015;29;20024;-68
2023/02/23 01:34:36;;;;;;;24.63;12.55;;;;;;;5.55;100.00;95476.22;1011650;29;20028;-67
2023/02/23 01:35:08;;;;;;;20.83;12.35;;;;;;;5.59;100.00;95477.31;1015313;29;20092;-69
2023/02/23 01:35:38;;;;;;;20.80;12.13;;;;;;;5.53;100.00;95466.03;1015163;29;20123;-68
2023/02/23 01:36:09;;;;;;;22.77;12.00;;;;;;;5.62;100.00;95479.44;1026067;28;20677;-68
2023/02/23 01:36:40;;;;;;;21.33;13.05;;;;;;;5.59;100.00;95467.69;1022795;29;20301;-69
2023/02/23 01:37:11;;;;;;;20.65;12.15;;;;;;;5.68;100.00;95486.31;1022786;29;20030;-70
2023/02/23 01:37:42;;;;;;;25.85;12.77;;;;;;;5.64;100.00;95474.81;1023103;29;20269;-69
2023/02/23 01:38:12;;;;;;;20.83;12.30;;;;;;;5.63;100.00;95479.22;1017519;29;20106;-67
2023/02/23 01:38:43;;;;;;;23.25;11.50;;;;;;;5.61;100.00;95470.06;1011475;29;20081;-67
2023/02/23 01:39:15;;;;;;;23.30;12.68;;;;;;;5.56;100.00;95467.38;1014416;29;20020;-68
2023/02/23 01:39:45;;;;;;;25.08;12.35;;;;;;;5.59;100.00;95478.09;1019289;29;20023;-69
2023/02/23 01:40:27;;;;;;;22.85;12.35;;;;;;;5.57;100.00;95474.19;1019368;29;20360;-68
2023/02/23 01:40:57;;;;;;;28.67;12.70;;;;;;;5.58;100.00;95471.31;1016843;29;20023;-67
2023/02/23 01:41:31;;;;;;;21.10;12.30;;;;;;;5.59;100.00;95474.72;1020733;29;20260;-68
2023/02/23 01:42:04;;;;;;;23.13;11.85;;;;;;;5.54;100.00;95470.22;1021078;29;20023;-68
2023/02/23 01:42:38;;;;;;;24.30;11.63;;;;;;;5.61;100.00;95480.47;1020933;29;20278;-68
2023/02/23 01:43:10;;;;;;;19.65;12.60;;;;;;;5.58;100.00;95467.94;1022988;29;20282;-67
2023/02/23 01:44:05;;;;;;;22.52;11.88;;;;;;;5.60;100.00;95473.66;1024528;28;20350;-66
2023/02/23 01:44:38;;;;;;;22.92;13.40;;;;;;;5.62;100.00;95472.41;1027093;28;20341;-68
2023/02/23 01:45:34;;;;;;;18.90;11.70;;;;;;;5.60;100.00;95473.66;1027031;28;20926;-68
2023/02/23 01:46:04;;;;;;;24.80;12.73;;;;;;;5.63;100.00;95478.41;1023083;29;20279;-68
2023/02/23 01:46:37;;;;;;;20.25;11.60;;;;;;;5.60;100.00;95463.25;1022650;29;20287;-70
2023/02/23 01:47:08;;;;;;;21.95;12.32;;;;;;;5.67;100.00;95475.13;1022891;29;20477;-69
2023/02/23 01:47:38;;;;;;;21.67;11.93;;;;;;;5.65;100.00;95474.53;1023253;28;20285;-67
2023/02/23 01:48:14;;;;;;;20.90;12.30;;;;;;;5.65;100.00;95460.75;1030409;28;20468;-68
2023/02/23 01:48:44;;;;;;;26.67;13.05;;;;;;;5.71;100.00;95470.22;1026285;28;20353;-69
2023/02/23 01:49:18;;;;;;;25.55;13.60;;;;;;;5.70;100.00;95468.66;1019158;29;20266;-69
2023/02/23 01:49:49;;;;;;;23.52;12.05;;;;;;;5.65;100.00;95458.94;1019621;28;20054;-67
2023/02/23 01:50:20;;;;;;;22.75;12.55;;;;;;;5.66;100.00;95455.28;1011348;29;20727;-68
2023/02/23 01:50:53;;;;;;;19.70;11.57;;;;;;;5.74;100.00;95469.75;1015149;29;20024;-68
2023/02/23 01:51:26;;;;;;;21.73;12.75;;;;;;;5.73;100.00;95468.16;1022751;28;20047;-66
2023/02/23 01:51:59;;;;;;;19.38;12.38;;;;;;;5.75;100.00;95466.09;1023111;29;20676;-70
2023/02/23 01:52:29;;;;;;;20.77;12.50;;;;;;;5.81;100.00;95466.97;1019111;29;20263;-68
2023/02/23 01:53:00;;;;;;;18.80;12.10;;;;;;;5.72;100.00;95461.38;1017990;29;20259;-67
2023/02/23 01:53:32;;;;;;;21.77;12.30;;;;;;;5.77;100.00;95465.84;1022878;29;20117;-69
2023/02/23 01:54:08;;;;;;;21.02;11.68;;;;;;;5.77;100.00;95463.25;1015029;29;20027;-69
2023/02/23 01:54:49;;;;;;;21.08;11.55;;;;;;;5.70;100.00;95453.03;1026846;28;20269;-68
2023/02/23 01:55:23;;;;;;;20.70;11.85;;;;;;;5.73;100.00;95459.56;1026863;28;20277;-67
2023/02/23 01:55:55;;;;;;;26.55;11.32;;;;;;;5.76;100.00;95461.69;1019006;29;20263;-67
2023/02/23 01:56:29;;;;;;;20.65;12.55;;;;;;;5.73;100.00;95452.53;1022905;29;20674;-68
2023/02/23 01:57:00;;;;;;;26.27;12.00;;;;;;;5.76;100.00;95467.66;1022932;29;20279;-69
2023/02/23 01:57:30;;;;;;;22.50;12.52;;;;;;;5.76;100.00;95459.06;1022960;29;20267;-67
2023/02/23 01:58:04;;;;;;;22.75;12.00;;;;;;;5.75;100.00;95465.31;1011192;29;20249;-68
2023/02/23 01:58:35;;;;;;;23.98;13.10;;;;;;;5.73;100.00;95464.75;1018856;29;20016;-65
2023/02/23 01:59:05;;;;;;;20.13;12.18;;;;;;;5.74;100.00;95464.53;1022901;29;20258;-68
2023/02/23 01:59:41;;;;;;;22.00;12.45;;;;;;;5.76;100.00;95451.28;1022223;29;20591;-67
2023/02/23 02:00:13;;;;;;;23.73;12.20;;;;;;;5.83;100.00;95457.88;1015889;29;20024;-66
2023/02/23 02:00:49;;;;;;;19.77;12.52;;;;;;;5.80;100.00;95452.38;1024021;28;20282;-68
2023/02/23 02:01:20;;;;;;;20.55;11.73;;;;;;;5.80;100.00;95458.38;1026697;28;20281;-68
2023/02/23 02:01:51;;;;;;;23.35;13.38;;;;;;;5.81;100.00;95461.78;1022995;29;20266;-68
2023/02/23 02:02:23;;;;;;;23.65;12.50;;;;;;;5.76;100.00;95452.06;1026986;28;20015;-71
2023/02/23 02:02:53;;;;;;;20.33;12.52;;;;;;;5.73;100.00;95449.91;1027019;28;20078;-68
2023/02/23 02:03:45;;;;;;;21.58;12.18;;;;;;;5.87;100.00;95458.22;1026794;28;20408;-68
2023/02/23 02:04:18;;;;;;;21.92;13.05;;;;;;;5.77;100.00;95453.66;1019062;29;20050;-67
2023/02/23 02:04:50;;;;;;;20.13;12.50;;;;;;;5.69;100.00;95435.81;1014997;29;20658;-68
2023/02/23 02:05:21;;;;;;;24.08;12.63;;;;;;;5.72;100.00;95439.75;1018931;29;20271;-67
2023/02/23 02:05:52;;;;;;;27.70;13.43;;;;;;;5.77;100.00;95453.66;1022958;28;20267;-68
2023/02/23 02:06:23;;;;;;;24.27;12.80;;;;;;;5.77;100.00;95453.66;1022850;29;20019;-67
2023/02/23 02:06:55;;;;;;;22.45;12.13;;;;;;;5.75;100.00;95445.28;1018787;29;20040;-68
2023/02/23 02:07:26;;;;;;;26.40;12.65;;;;;;;5.70;100.00;95437.41;1023031;29;20295;-67
2023/02/23 02:07:57;;;;;;;21.48;12.85;;;;;;;5.74;100.00;95454.13;1026777;28;20262;-67
2023/02/23 02:08:29;;;;;;;22.27;12.60;;;;;;;5.68;100.00;95442.06;1014898;29;20316;-69
2023/02/23 02:09:15;;;;;;;25.52;13.02;;;;;;;5.71;100.00;95446.00;1022931;28;20030;-67
2023/02/23 02:10:38;;;;;;;23.23;12.20;;;;;;;5.63;100.00;95441.97;1015740;29;20784;-68
2023/02/23 02:11:24;;;;;;;21.55;11.82;;;;;;;5.61;100.00;95444.81;1015277;29;20690;-69
2023/02/23 02:11:55;;;;;;;23.67;13.55;;;;;;;5.65;100.00;95445.13;1025640;28;20274;-70
2023/02/23 02:12:26;;;;;;;24.85;12.90;;;;;;;5.63;100.00;95447.19;1026982;28;20255;-69
2023/02/23 02:12:56;;;;;;;20.60;12.15;;;;;;;5.61;100.00;95449.25;1031872;28;20026;-67
2023/02/23 02:13:28;;;;;;;21.80;12.32;;;;;;;5.58;100.00;95439.31;1020681;28;20020;-68
2023/02/23 02:14:11;;;;;;;21.38;12.85;;;;;;;5.59;100.00;95451.28;1018918;29;20019;-69
2023/02/23 02:14:44;;;;;;;20.25;12.07;;;;;;;5.49;100.00;95436.31;1019105;29;20637;-67
2023/02/23 02:15:18;;;;;;;25.05;12.93;;;;;;;5.50;100.00;95431.88;1019377;29;20702;-69
2023/02/23 02:16:21;;;;;;;22.30;12.63;;;;;;;5.31;100.00;95411.34;1017386;29;20280;-67
2023/02/23 02:17:26;;;;;;;26.95;13.20;;;;;;;5.50;100.00;95447.50;1019856;28;20275;-68
2023/02/23 02:18:08;;;;;;;22.10;12.02;;;;;;;5.53;100.00;95444.41;1022562;29;20621;-68
2023/02/23 02:19:02;;;;;;;23.23;12.85;;;;;;;5.55;100.00;95439.78;1020060;28;20275;-68
2023/02/23 02:20:31;;;;;;;23.40;12.50;;;;;;;5.55;100.00;95447.59;1014328;29;20276;-69
2023/02/23 02:21:19;;;;;;;25.92;12.55;;;;;;;5.54;100.00;95443.41;1024995;28;20294;-67
2023/02/23 02:21:55;;;;;;;25.80;12.93;;;;;;;5.56;100.00;95449.16;1026892;28;20266;-68
2023/02/23 02:22:54;;;;;;;21.98;12.25;;;;;;;5.58;100.00;95444.50;1027052;28;20341;-67
2023/02/23 02:23:43;;;;;;;23.42;13.07;;;;;;;5.58;100.00;95437.50;1024007;28;20302;-69
2023/02/23 02:24:46;;;;;;;23.35;12.57;;;;;;;5.57;100.00;95438.53;1030921;28;20266;-67
2023/02/23 02:25:39;;;;;;;24.42;12.65;;;;;;;5.61;100.00;95441.44;1023677;28;20286;-67
2023/02/23 02:26:38;;;;;;;25.98;12.55;;;;;;;5.61;100.00;95444.03;1022917;29;20262;-67
2023/02/23 02:27:33;;;;;;;26.35;13.05;;;;;;;5.63;100.00;95445.38;1029989;28;20324;-67
2023/02/23 02:28:31;;;;;;;22.45;12.48;;;;;;;5.64;100.00;95444.34;1031380;28;20559;-69
2023/02/23 02:29:31;;;;;;;27.83;13.20;;;;;;;5.65;100.00;95440.72;1024441;28;20366;-67
2023/02/23 02:30:12;;;;;;;20.85;12.10;;;;;;;5.67;100.00;95440.50;1034519;28;20793;-69
2023/02/23 02:30:47;;;;;;;26.38;13.20;;;;;;;5.66;100.00;95441.50;1027164;28;20759;-67
2023/02/23 02:31:35;;;;;;;23.75;13.05;;;;;;;5.67;100.00;95443.09;1023250;28;20285;-67
2023/02/23 02:32:27;;;;;;;21.35;12.63;;;;;;;5.65;100.00;95440.72;1023184;28;20255;-67
2023/02/23 02:33:33;;;;;;;23.40;13.05;;;;;;;5.68;100.00;95439.47;1027144;28;20823;-68
2023/02/23 02:34:45;;;;;;;24.00;13.05;;;;;;;5.70;100.00;95440.00;1027429;28;20269;-69
2023/02/23 02:36:12;;;;;;;23.80;12.70;;;;;;;5.70;100.00;95437.41;1031300;28;20269;-67
2023/02/23 02:37:01;;;;;;;23.05;12.15;;;;;;;5.66;100.00;95442.28;1026816;28;20254;-68
2023/02/23 02:37:34;;;;;;;24.58;12.95;;;;;;;5.66;100.00;95446.69;1026853;28;20274;-66
2023/02/23 02:38:26;;;;;;;25.67;13.73;;;;;;;5.66;100.00;95434.47;1027088;28;20866;-67
2023/02/23 02:39:35;;;;;;;26.63;13.38;;;;;;;5.67;100.00;95438.66;1026759;28;20759;-68
2023/02/23 02:40:16;;;;;;;24.80;13.43;;;;;;;5.70;100.00;95437.41;1023533;28;20299;-67